createdAt,value
2018-02-13T00:00:52.982Z,35.30
2018-02-13T00:03:21.406Z,35.30
2018-02-13T00:05:50.524Z,35.30
2018-02-13T00:08:19.274Z,35.30
2018-02-13T00:10:47.664Z,35.30
2018-02-13T00:13:16.022Z,35.30
2018-02-13T00:15:44.385Z,35.30
2018-02-13T00:18:12.760Z,35.30
2018-02-13T00:20:41.108Z,35.30
2018-02-13T00:23:09.476Z,35.30
2018-02-13T00:25:38.258Z,35.30
2018-02-13T00:28:06.839Z,35.30
2018-02-13T00:30:35.193Z,35.10
2018-02-13T00:33:03.546Z,35.30
2018-02-13T00:35:31.894Z,35.30
2018-02-13T00:38:00.254Z,35.30
2018-02-13T00:40:28.637Z,35.30
2018-02-13T00:42:57.551Z,35.10
2018-02-13T00:45:25.962Z,35.10
2018-02-13T00:47:54.289Z,35.10
2018-02-13T00:50:23.076Z,35.10
2018-02-13T00:52:51.750Z,35.10
2018-02-13T00:55:20.498Z,35.10
2018-02-13T00:57:48.866Z,35.10
2018-02-13T01:00:17.251Z,35.10
2018-02-13T01:02:46.255Z,35.10
2018-02-13T01:05:14.727Z,35.10
2018-02-13T01:07:43.073Z,35.10
2018-02-13T01:10:11.421Z,35.10
2018-02-13T01:12:39.801Z,35.00
2018-02-13T01:15:08.125Z,35.00
2018-02-13T01:17:36.763Z,35.00
2018-02-13T01:20:05.136Z,35.00
2018-02-13T01:22:33.465Z,35.00
2018-02-13T01:25:02.045Z,35.00
2018-02-13T01:27:30.454Z,35.00
2018-02-13T01:29:59.075Z,35.00
2018-02-13T01:32:27.455Z,35.00
2018-02-13T01:34:56.234Z,35.00
2018-02-13T01:37:24.945Z,35.00
2018-02-13T01:39:54.314Z,35.00
2018-02-13T01:42:22.634Z,35.00
2018-02-13T01:44:50.995Z,35.00
2018-02-13T01:47:19.402Z,35.00
2018-02-13T01:49:47.734Z,35.00
2018-02-13T01:52:16.085Z,35.00
2018-02-13T01:54:44.439Z,35.00
2018-02-13T01:57:12.774Z,35.00
2018-02-13T01:59:41.485Z,35.00
2018-02-13T02:02:09.882Z,35.00
2018-02-13T02:04:38.512Z,35.00
2018-02-13T02:07:06.878Z,35.00
2018-02-13T02:09:35.577Z,35.00
2018-02-13T02:12:03.917Z,35.00
2018-02-13T02:14:32.534Z,34.80
2018-02-13T02:17:00.900Z,34.80
2018-02-13T02:19:29.246Z,34.80
2018-02-13T02:21:57.594Z,34.80
2018-02-13T02:24:26.219Z,34.80
2018-02-13T02:26:54.578Z,34.80
2018-02-13T02:29:23.138Z,34.80
2018-02-13T02:31:51.586Z,34.80
2018-02-13T02:34:19.950Z,34.80
2018-02-13T02:36:48.315Z,34.80
2018-02-13T02:39:16.698Z,34.80
2018-02-13T02:41:45.039Z,34.80
2018-02-13T02:44:13.387Z,34.80
2018-02-13T02:46:42.075Z,34.80
2018-02-13T02:49:10.847Z,34.80
2018-02-13T02:51:39.235Z,34.80
2018-02-13T02:54:07.590Z,34.80
2018-02-13T02:56:35.973Z,34.80
2018-02-13T02:59:04.324Z,34.80
2018-02-13T03:01:32.662Z,34.80
2018-02-13T03:04:01.399Z,34.80
2018-02-13T03:06:29.749Z,34.80
2018-02-13T03:08:58.405Z,34.80
2018-02-13T03:11:26.776Z,34.80
2018-02-13T03:13:55.110Z,34.80
2018-02-13T03:16:23.486Z,34.80
2018-02-13T03:18:52.063Z,34.80
2018-02-13T03:21:20.410Z,34.80
2018-02-13T03:23:48.774Z,34.80
2018-02-13T03:26:17.103Z,34.80
2018-02-13T03:28:45.447Z,34.80
2018-02-13T03:31:14.110Z,34.80
2018-02-13T03:33:42.446Z,34.80
2018-02-13T03:36:10.795Z,34.80
2018-02-13T03:38:39.153Z,34.80
2018-02-13T03:41:07.899Z,34.80
2018-02-13T03:43:36.533Z,34.80
2018-02-13T03:46:04.903Z,35.00
2018-02-13T03:48:33.297Z,35.00
2018-02-13T03:51:02.042Z,35.00
2018-02-13T03:53:30.422Z,35.00
2018-02-13T03:55:58.741Z,35.00
2018-02-13T03:58:27.464Z,35.00
2018-02-13T04:00:55.854Z,35.00
2018-02-13T04:03:24.222Z,35.00
2018-02-13T04:05:52.555Z,35.00
2018-02-13T04:08:21.346Z,35.00
2018-02-13T04:10:49.676Z,35.00
2018-02-13T04:13:18.291Z,35.00
2018-02-13T04:15:47.101Z,35.00
2018-02-13T04:18:15.451Z,35.00
2018-02-13T04:20:44.198Z,35.00
2018-02-13T04:23:12.594Z,35.00
2018-02-13T04:25:40.926Z,35.00
2018-02-13T04:28:09.256Z,35.00
2018-02-13T04:30:37.963Z,35.10
2018-02-13T04:33:06.718Z,35.10
2018-02-13T04:35:35.109Z,35.10
2018-02-13T04:38:03.497Z,35.10
2018-02-13T04:40:31.850Z,35.00
2018-02-13T04:43:00.211Z,35.10
2018-02-13T04:45:28.561Z,35.00
2018-02-13T04:47:56.913Z,35.10
2018-02-13T04:50:25.258Z,35.10
2018-02-13T04:52:53.630Z,35.10
2018-02-13T04:55:21.948Z,35.10
2018-02-13T04:57:50.690Z,35.10
2018-02-13T05:00:19.051Z,35.10
2018-02-13T05:02:47.797Z,35.10
2018-02-13T05:05:16.489Z,35.10
2018-02-13T05:07:44.914Z,35.30
2018-02-13T05:10:13.278Z,35.30
2018-02-13T05:12:41.629Z,35.30
2018-02-13T05:15:10.381Z,35.30
2018-02-13T05:17:39.026Z,35.30
2018-02-13T05:20:07.522Z,35.30
2018-02-13T05:22:35.875Z,35.30
2018-02-13T05:25:05.082Z,35.30
2018-02-13T05:27:33.474Z,35.30
2018-02-13T05:30:02.086Z,35.30
2018-02-13T05:32:30.418Z,35.30
2018-02-13T05:34:58.801Z,35.30
2018-02-13T05:37:27.166Z,35.30
2018-02-13T05:39:55.916Z,35.30
2018-02-13T05:42:24.283Z,35.30
2018-02-13T05:44:52.702Z,35.30
2018-02-13T05:47:21.457Z,35.30
2018-02-13T05:49:49.798Z,35.30
2018-02-13T05:52:18.440Z,35.30
2018-02-13T05:54:47.539Z,35.30
2018-02-13T05:57:15.897Z,35.30
2018-02-13T05:59:44.341Z,35.30
2018-02-13T06:02:12.718Z,35.30
2018-02-13T06:04:41.078Z,35.30
2018-02-13T06:07:09.822Z,35.30
2018-02-13T06:09:38.186Z,35.30
2018-02-13T06:12:06.543Z,35.30
2018-02-13T06:14:34.889Z,35.30
2018-02-13T06:17:03.677Z,35.30
2018-02-13T06:19:32.042Z,35.30
2018-02-13T06:22:00.466Z,35.30
2018-02-13T06:24:28.875Z,35.30
2018-02-13T06:26:57.256Z,35.30
2018-02-13T06:29:25.591Z,35.30
2018-02-13T06:31:53.957Z,35.30
2018-02-13T06:34:22.329Z,35.30
2018-02-13T06:36:50.712Z,35.30
2018-02-13T06:39:19.049Z,35.30
2018-02-13T06:41:47.433Z,35.30
2018-02-13T06:44:15.821Z,35.30
2018-02-13T06:46:44.514Z,37.50
2018-02-13T06:49:14.124Z,46.20
2018-02-13T06:51:42.561Z,42.70
2018-02-13T06:54:10.900Z,42.20
2018-02-13T06:56:39.326Z,41.30
2018-02-13T06:59:07.705Z,40.70
2018-02-13T07:01:36.065Z,40.20
2018-02-13T07:04:04.409Z,39.60
2018-02-13T07:06:32.778Z,39.10
2018-02-13T07:09:01.856Z,38.50
2018-02-13T07:11:30.448Z,38.50
2018-02-13T07:13:58.831Z,38.20
2018-02-13T07:16:27.161Z,37.80
2018-02-13T07:18:55.552Z,37.40
2018-02-13T07:21:23.893Z,37.10
2018-02-13T07:23:52.538Z,37.40
2018-02-13T07:26:21.145Z,37.40
2018-02-13T07:28:49.471Z,43.10
2018-02-13T07:31:17.854Z,51.80
2018-02-13T07:33:46.243Z,55.40
2018-02-13T07:36:14.838Z,55.80
2018-02-13T07:38:43.166Z,52.70
2018-02-13T07:41:11.572Z,46.50
2018-02-13T07:43:39.989Z,47.30
2018-02-13T07:46:08.717Z,45.60
2018-02-13T07:48:37.106Z,45.60
2018-02-13T07:51:05.433Z,44.70
2018-02-13T07:53:34.403Z,43.40
2018-02-13T07:56:02.850Z,43.40
2018-02-13T07:58:31.177Z,42.80
2018-02-13T08:00:59.896Z,41.80
2018-02-13T08:03:28.253Z,41.80
2018-02-13T08:05:57.098Z,52.30
2018-02-13T08:08:25.425Z,52.30
2018-02-13T08:10:54.037Z,50.20
2018-02-13T08:13:22.390Z,51.20
2018-02-13T08:15:50.753Z,56.90
2018-02-13T08:18:19.501Z,47.80
2018-02-13T08:20:47.850Z,47.80
2018-02-13T08:23:16.546Z,46.20
2018-02-13T08:25:45.285Z,35.10
2018-02-13T08:28:14.014Z,42.10
2018-02-13T08:30:42.650Z,42.20
2018-02-13T08:33:11.261Z,44.60
2018-02-13T08:35:39.657Z,44.70
2018-02-13T08:38:08.049Z,43.30
2018-02-13T08:40:36.444Z,48.60
2018-02-13T08:43:05.159Z,46.70
2018-02-13T08:45:34.001Z,46.10
2018-02-13T08:48:02.645Z,46.10
2018-02-13T08:50:31.057Z,52.30
2018-02-13T08:52:59.438Z,53.00
2018-02-13T08:55:27.874Z,50.90
2018-02-13T08:57:56.259Z,47.10
2018-02-13T09:00:25.050Z,42.40
2018-02-13T09:02:53.488Z,42.40
2018-02-13T09:05:22.611Z,37.80
2018-02-13T09:07:52.085Z,35.30
2018-02-13T09:10:20.439Z,35.30
2018-02-13T09:12:48.771Z,33.20
2018-02-13T09:15:17.765Z,31.70
2018-02-13T09:17:46.566Z,33.70
2018-02-13T09:20:15.336Z,31.90
2018-02-13T09:22:43.764Z,31.90
2018-02-13T09:25:12.137Z,29.30
2018-02-13T09:27:40.488Z,28.40
2018-02-13T09:30:09.272Z,26.70
2018-02-13T09:32:38.363Z,26.10
2018-02-13T09:35:07.097Z,24.90
2018-02-13T09:37:35.498Z,24.90
2018-02-13T09:40:04.105Z,25.00
2018-02-13T09:42:32.861Z,22.40
2018-02-13T09:45:01.466Z,22.40
2018-02-13T09:47:29.827Z,23.60
2018-02-13T09:49:58.162Z,23.20
2018-02-13T09:52:26.534Z,24.50
2018-02-13T09:54:54.877Z,26.20
2018-02-13T09:57:23.342Z,24.70
2018-02-13T09:59:51.718Z,25.70
2018-02-13T10:02:20.048Z,25.90
2018-02-13T10:04:48.406Z,25.60
2018-02-13T10:07:17.147Z,26.30
2018-02-13T10:09:45.534Z,26.30
2018-02-13T10:12:13.918Z,25.70
2018-02-13T10:14:42.286Z,25.30
2018-02-13T10:17:10.626Z,24.90
2018-02-13T10:19:39.287Z,26.20
2018-02-13T10:22:07.647Z,27.20
2018-02-13T10:24:36.015Z,26.40
2018-02-13T10:27:04.355Z,25.80
2018-02-13T10:29:32.707Z,25.80
2018-02-13T10:32:01.446Z,26.30
2018-02-13T10:34:30.458Z,26.30
2018-02-13T10:36:58.880Z,26.20
2018-02-13T10:39:27.224Z,26.30
2018-02-13T10:41:55.923Z,26.90
2018-02-13T10:44:24.668Z,27.50
2018-02-13T10:46:53.075Z,27.50
2018-02-13T10:49:21.424Z,26.10
2018-02-13T10:51:50.055Z,26.80
2018-02-13T10:54:18.791Z,26.10
2018-02-13T10:56:47.158Z,26.10
2018-02-13T10:59:16.286Z,25.60
2018-02-13T11:01:44.629Z,25.00
2018-02-13T11:04:13.103Z,26.20
2018-02-13T11:06:41.458Z,26.00
2018-02-13T11:09:09.854Z,27.60
2018-02-13T11:11:39.046Z,28.60
2018-02-13T11:14:08.140Z,28.40
2018-02-13T11:16:36.886Z,28.40
2018-02-13T11:19:05.285Z,28.10
2018-02-13T11:21:34.073Z,26.20
2018-02-13T11:24:03.166Z,26.60
2018-02-13T11:26:32.341Z,26.90
2018-02-13T11:29:00.734Z,26.90
2018-02-13T11:31:29.206Z,27.70
2018-02-13T11:33:58.461Z,27.50
2018-02-13T11:36:26.794Z,28.20
2018-02-13T11:38:55.158Z,28.80
2018-02-13T11:41:23.527Z,30.40
2018-02-13T11:43:51.939Z,28.50
2018-02-13T11:46:20.696Z,25.80
2018-02-13T11:48:49.047Z,25.80
2018-02-13T11:51:17.402Z,24.30
2018-02-13T11:53:45.749Z,23.20
2018-02-13T11:56:14.329Z,21.80
2018-02-13T11:58:43.402Z,21.50
2018-02-13T12:01:11.734Z,21.50
2018-02-13T12:03:40.064Z,20.30
2018-02-13T12:06:08.466Z,19.30
2018-02-13T12:08:36.845Z,18.50
2018-02-13T12:11:05.918Z,18.10
2018-02-13T12:13:34.291Z,18.10
2018-02-13T12:16:02.656Z,18.30
2018-02-13T12:18:31.053Z,18.90
2018-02-13T12:20:59.414Z,19.90
2018-02-13T12:23:27.775Z,20.80
2018-02-13T12:25:56.494Z,23.50
2018-02-13T12:28:25.302Z,21.70
2018-02-13T12:30:53.648Z,22.30
2018-02-13T12:33:22.758Z,23.50
2018-02-13T12:35:52.044Z,22.40
2018-02-13T12:38:20.493Z,23.30
2018-02-13T12:40:48.870Z,24.30
2018-02-13T12:43:17.198Z,25.50
2018-02-13T12:45:45.569Z,27.30
2018-02-13T12:48:13.958Z,28.60
2018-02-13T12:50:42.539Z,29.30
2018-02-13T12:53:10.883Z,29.90
2018-02-13T12:55:39.226Z,28.60
2018-02-13T12:58:07.966Z,27.80
2018-02-13T13:00:36.314Z,27.70
2018-02-13T13:03:04.713Z,27.60
2018-02-13T13:05:33.087Z,25.90
2018-02-13T13:08:01.473Z,26.50
2018-02-13T13:10:30.202Z,27.60
2018-02-13T13:12:59.189Z,27.00
2018-02-13T13:15:27.650Z,27.00
2018-02-13T13:17:56.022Z,26.30
2018-02-13T13:20:24.472Z,26.10
2018-02-13T13:22:53.115Z,25.80
2018-02-13T13:25:21.416Z,25.20
2018-02-13T13:27:50.095Z,25.30
2018-02-13T13:30:18.805Z,24.70
2018-02-13T13:32:47.093Z,24.70
2018-02-13T13:35:15.385Z,23.60
2018-02-13T13:37:43.671Z,24.80
2018-02-13T13:40:11.943Z,24.00
2018-02-13T13:42:40.258Z,23.40
2018-02-13T13:45:08.946Z,21.80
2018-02-13T13:47:37.616Z,21.30
2018-02-13T13:50:05.946Z,21.30
2018-02-13T13:52:34.255Z,21.90
2018-02-13T13:55:02.531Z,22.00
2018-02-13T13:57:30.804Z,20.10
2018-02-13T13:59:59.098Z,21.20
2018-02-13T14:02:27.675Z,21.30
2018-02-13T14:04:55.944Z,20.70
2018-02-13T14:07:24.276Z,19.50
2018-02-13T14:09:52.958Z,21.00
2018-02-13T14:12:21.387Z,21.00
2018-02-13T14:14:49.676Z,20.40
2018-02-13T14:20:14.321Z,20.40
2018-02-13T14:22:42.628Z,20.40
2018-02-13T14:25:10.975Z,19.40
2018-02-13T14:27:39.250Z,19.70
2018-02-13T14:30:07.527Z,19.10
2018-02-13T14:32:36.070Z,19.90
2018-02-13T14:35:04.584Z,20.00
2018-02-13T14:37:32.912Z,19.70
2018-02-13T14:40:01.246Z,19.60
2018-02-13T14:42:29.559Z,18.90
2018-02-13T14:44:57.943Z,18.90
2018-02-13T14:47:26.271Z,19.80
2018-02-13T14:49:54.576Z,19.60
2018-02-13T14:52:22.885Z,19.70
2018-02-13T14:54:51.174Z,19.70
2018-02-13T14:57:19.464Z,19.80
2018-02-13T14:59:48.041Z,19.90
2018-02-13T15:02:16.718Z,19.50
2018-02-13T15:04:45.008Z,19.50
2018-02-13T15:07:13.758Z,21.20
2018-02-13T15:09:42.110Z,21.30
2018-02-13T15:12:10.455Z,20.60
2018-02-13T15:14:39.151Z,21.30
2018-02-13T15:17:17.438Z,21.30
2018-02-13T15:19:47.680Z,21.20
2018-02-13T15:22:16.102Z,21.70
2018-02-13T15:24:44.430Z,21.50
2018-02-13T15:27:12.700Z,22.30
2018-02-13T15:29:40.991Z,22.30
2018-02-13T15:32:09.680Z,22.50
2018-02-13T15:34:37.983Z,22.50
2018-02-13T15:37:06.609Z,22.10
2018-02-13T15:39:34.930Z,22.90
2018-02-13T15:42:03.480Z,22.30
2018-02-13T15:44:32.290Z,23.40
2018-02-13T15:47:17.424Z,23.40
2018-02-13T15:49:46.127Z,23.60
2018-02-13T15:52:14.433Z,23.60
2018-02-13T15:54:42.744Z,23.50
2018-02-13T15:57:11.042Z,23.40
2018-02-13T15:59:39.362Z,23.30
2018-02-13T16:02:07.648Z,23.60
2018-02-13T16:04:36.179Z,24.00
2018-02-13T16:07:04.499Z,24.20
2018-02-13T16:09:32.790Z,23.80
2018-02-13T16:12:01.123Z,24.20
2018-02-13T16:14:29.440Z,24.50
2018-02-13T16:16:57.779Z,28.40
2018-02-13T16:19:26.503Z,36.20
2018-02-13T16:21:54.781Z,36.20
2018-02-13T16:24:23.068Z,37.10
2018-02-13T16:26:51.359Z,37.40
2018-02-13T16:29:19.643Z,32.90
2018-02-13T16:31:47.928Z,35.70
2018-02-13T16:34:16.255Z,35.10
2018-02-13T16:36:44.592Z,34.50
2018-02-13T16:39:12.851Z,34.40
2018-02-13T16:41:41.232Z,38.20
2018-02-13T16:44:09.531Z,36.30
2018-02-13T16:46:38.081Z,35.10
2018-02-13T16:49:06.368Z,35.10
2018-02-13T16:51:35.158Z,34.10
2018-02-13T16:54:03.548Z,31.60
2018-02-13T16:56:32.245Z,29.10
2018-02-13T16:59:00.536Z,29.10
2018-02-13T17:01:29.239Z,30.60
2018-02-13T17:03:57.540Z,30.60
2018-02-13T17:06:25.849Z,28.30
2018-02-13T17:08:54.205Z,27.70
2018-02-13T17:11:23.436Z,27.10
2018-02-13T17:13:52.529Z,27.10
2018-02-13T17:16:21.174Z,27.10
2018-02-13T17:18:49.637Z,26.60
2018-02-13T17:21:17.959Z,26.10
2018-02-13T17:23:46.578Z,25.60
2018-02-13T17:26:15.500Z,25.90
2018-02-13T17:28:43.857Z,26.60
2018-02-13T17:31:13.111Z,28.00
2018-02-13T17:33:44.465Z,28.40
2018-02-13T17:36:13.337Z,28.90
2018-02-13T17:38:42.701Z,28.90
2018-02-13T17:41:11.192Z,28.90
2018-02-13T17:43:39.583Z,28.90
2018-02-13T17:46:07.923Z,28.70
2018-02-13T17:48:36.728Z,28.50
2018-02-13T17:51:05.753Z,28.70
2018-02-13T17:53:34.281Z,28.40
2018-02-13T17:56:02.654Z,28.60
2018-02-13T17:58:31.336Z,28.50
2018-02-13T18:00:59.635Z,28.50
2018-02-13T18:03:28.000Z,28.60
2018-02-13T18:05:56.350Z,28.50
2018-02-13T18:08:24.787Z,28.30
2018-02-13T18:10:53.124Z,28.40
2018-02-13T18:13:21.834Z,28.60
2018-02-13T18:15:50.495Z,28.60
2018-02-13T18:18:19.488Z,32.60
2018-02-13T18:20:48.461Z,31.90
2018-02-13T18:23:16.747Z,31.90
2018-02-13T18:25:45.064Z,32.90
2018-02-13T18:28:13.411Z,40.90
2018-02-13T18:30:42.381Z,43.70
2018-02-13T18:33:11.080Z,38.70
2018-02-13T18:35:39.466Z,38.70
2018-02-13T18:38:08.156Z,36.50
2018-02-13T18:40:36.476Z,36.50
2018-02-13T18:43:04.808Z,33.70
2018-02-13T18:45:33.496Z,31.40
2018-02-13T18:48:02.196Z,31.10
2018-02-13T18:50:30.751Z,31.10
2018-02-13T18:55:27.869Z,29.60
2018-02-13T18:57:56.164Z,29.60
2018-02-13T19:00:24.486Z,29.40
2018-02-13T19:02:53.204Z,29.10
2018-02-13T19:05:21.524Z,29.10
2018-02-13T19:07:49.807Z,28.90
2018-02-13T19:10:18.262Z,29.00
2018-02-13T19:12:46.607Z,28.60
2018-02-13T19:15:15.026Z,28.90
2018-02-13T19:17:43.327Z,29.10
2018-02-13T19:20:11.621Z,29.00
2018-02-13T19:22:40.315Z,28.90
2018-02-13T19:25:08.626Z,28.90
2018-02-13T19:27:37.018Z,28.90
2018-02-13T19:30:05.296Z,29.10
2018-02-13T19:32:33.592Z,28.90
2018-02-13T19:35:01.883Z,29.10
2018-02-13T19:37:30.630Z,28.90
2018-02-13T19:39:58.930Z,28.90
2018-02-13T19:42:27.258Z,29.00
2018-02-13T19:44:55.835Z,28.80
2018-02-13T19:47:24.379Z,29.00
2018-02-13T19:49:52.875Z,28.80
2018-02-13T19:52:21.552Z,29.20
2018-02-13T19:54:50.046Z,29.20
2018-02-13T19:57:18.771Z,29.20
2018-02-13T19:59:47.164Z,29.20
2018-02-13T20:02:15.499Z,29.50
2018-02-13T20:04:43.853Z,29.60
2018-02-13T20:07:12.548Z,29.40
2018-02-13T20:09:41.246Z,29.20
2018-02-13T20:12:09.581Z,29.20
2018-02-13T20:14:37.984Z,29.10
2018-02-13T20:17:06.268Z,28.90
2018-02-13T20:19:34.980Z,29.10
2018-02-13T20:22:03.272Z,29.10
2018-02-13T20:24:31.623Z,29.00
2018-02-13T20:26:59.919Z,29.10
2018-02-13T20:29:28.254Z,29.30
2018-02-13T20:31:56.959Z,29.40
2018-02-13T20:34:25.300Z,29.30
2018-02-13T20:36:53.590Z,29.20
2018-02-13T20:39:22.567Z,29.50
2018-02-13T20:41:50.878Z,29.50
2018-02-13T20:44:19.185Z,29.70
2018-02-13T20:46:47.805Z,29.70
2018-02-13T20:49:16.133Z,29.60
2018-02-13T20:51:44.416Z,29.80
2018-02-13T20:54:12.718Z,29.80
2018-02-13T20:56:41.019Z,29.80
2018-02-13T20:59:09.303Z,29.70
2018-02-13T21:01:38.004Z,29.70
2018-02-13T21:04:06.684Z,29.70
2018-02-13T21:06:35.375Z,29.70
2018-02-13T21:09:03.684Z,29.70
2018-02-13T21:11:32.084Z,29.90
2018-02-13T21:14:00.384Z,30.10
2018-02-13T21:16:28.692Z,29.90
2018-02-13T21:18:57.339Z,29.90
2018-02-13T21:21:25.644Z,30.10
2018-02-13T21:23:54.359Z,30.10
2018-02-13T21:26:22.723Z,30.10
2018-02-13T21:28:51.014Z,30.10
2018-02-13T21:31:20.055Z,30.30
2018-02-13T21:33:48.420Z,30.60
2018-02-13T21:36:16.734Z,31.40
2018-02-13T21:38:45.321Z,31.70
2018-02-13T21:41:14.691Z,32.30
2018-02-13T21:43:42.990Z,32.90
2018-02-13T21:46:11.705Z,33.40
2018-02-13T21:48:40.006Z,33.40
2018-02-13T21:51:08.617Z,34.00
2018-02-13T21:53:36.900Z,33.80
2018-02-13T21:56:05.217Z,33.70
2018-02-13T21:58:33.495Z,33.40
2018-02-13T22:01:01.804Z,33.10
2018-02-13T22:03:30.149Z,33.10
2018-02-13T22:05:58.454Z,32.90
2018-02-13T22:08:27.089Z,32.90
2018-02-13T22:10:55.790Z,33.10
2018-02-13T22:13:24.118Z,33.10
2018-02-13T22:15:52.512Z,32.90
2018-02-13T22:18:21.224Z,32.50
2018-02-13T22:20:49.506Z,32.50
2018-02-13T22:23:17.796Z,32.50
2018-02-13T22:25:46.095Z,32.60
2018-02-13T22:28:14.408Z,32.50
2018-02-13T22:30:42.751Z,32.20
2018-02-13T22:33:11.035Z,31.70
2018-02-13T22:35:39.347Z,32.20
2018-02-13T22:38:08.326Z,32.30
2018-02-13T22:40:36.611Z,32.30
2018-02-13T22:43:05.295Z,32.80
2018-02-13T22:45:33.998Z,32.60
2018-02-13T22:48:02.331Z,32.60
2018-02-13T22:50:30.619Z,32.80
2018-02-13T22:52:59.338Z,33.40
2018-02-13T22:55:27.632Z,33.20
2018-02-13T22:57:56.022Z,33.70
2018-02-13T23:00:24.308Z,34.20
2018-02-13T23:02:52.612Z,34.70
2018-02-13T23:05:20.954Z,35.10
2018-02-13T23:07:49.253Z,35.90
2018-02-13T23:10:17.955Z,36.20
2018-02-13T23:12:46.347Z,36.60
2018-02-13T23:15:15.146Z,37.20
2018-02-13T23:17:43.842Z,37.40
2018-02-13T23:20:12.160Z,37.40
2018-02-13T23:22:40.556Z,37.50
2018-02-13T23:25:08.898Z,37.80
2018-02-13T23:27:37.221Z,37.90
2018-02-13T23:30:05.527Z,37.90
2018-02-13T23:32:33.836Z,37.90
2018-02-13T23:35:02.123Z,37.80
2018-02-13T23:37:30.419Z,37.60
2018-02-13T23:39:58.723Z,37.50
2018-02-13T23:42:27.393Z,36.90
2018-02-13T23:44:55.797Z,36.90
2018-02-13T23:47:24.506Z,36.50
2018-02-13T23:49:52.787Z,36.50
2018-02-13T23:52:21.091Z,36.20
2018-02-13T23:54:49.434Z,36.00
2018-02-13T23:57:17.720Z,35.90
2018-02-13T23:59:46.138Z,35.90
